sensor_id;sensor_type;location;lat;lon;timestamp;temperature;humidity
37356;DHT22;48747;50.250;18.848;2023-06-10T00:00:04;15.90;99.90
37356;DHT22;48747;50.250;18.848;2023-06-10T00:02:09;15.90;99.90
37356;DHT22;48747;50.250;18.848;2023-06-10T00:04:12;16.00;99.90
37356;DHT22;48747;50.250;18.848;2023-06-10T00:06:15;16.00;99.90
37356;DHT22;48747;50.250;18.848;2023-06-10T00:08:18;16.00;99.90
37356;DHT22;48747;50.250;18.848;2023-06-10T00:10:22;16.10;99.90
37356;DHT22;48747;50.250;18.848;2023-06-10T00:12:25;16.10;99.90
37356;DHT22;48747;50.250;18.848;2023-06-10T00:14:28;16.00;99.90
37356;DHT22;48747;50.250;18.848;2023-06-10T00:16:31;16.00;99.90
37356;DHT22;48747;50.250;18.848;2023-06-10T00:18:34;16.00;99.90
37356;DHT22;48747;50.250;18.848;2023-06-10T00:20:39;16.00;99.90
37356;DHT22;48747;50.250;18.848;2023-06-10T00:22:42;16.00;99.90
37356;DHT22;48747;50.250;18.848;2023-06-10T00:24:47;16.00;99.90
37356;DHT22;48747;50.250;18.848;2023-06-10T00:26:50;15.90;99.90
37356;DHT22;48747;50.250;18.848;2023-06-10T00:28:53;16.00;99.90
37356;DHT22;48747;50.250;18.848;2023-06-10T00:30:56;15.90;99.90
37356;DHT22;48747;50.250;18.848;2023-06-10T00:32:59;16.00;99.90
37356;DHT22;48747;50.250;18.848;2023-06-10T00:35:03;15.80;99.90
37356;DHT22;48747;50.250;18.848;2023-06-10T00:37:06;15.80;99.90
37356;DHT22;48747;50.250;18.848;2023-06-10T00:39:10;15.80;99.90
37356;DHT22;48747;50.250;18.848;2023-06-10T00:41:13;15.90;99.90
37356;DHT22;48747;50.250;18.848;2023-06-10T00:43:17;15.90;99.90
37356;DHT22;48747;50.250;18.848;2023-06-10T00:45:20;15.80;99.90
37356;DHT22;48747;50.250;18.848;2023-06-10T00:47:23;15.80;99.90
37356;DHT22;48747;50.250;18.848;2023-06-10T00:49:26;15.80;99.90
37356;DHT22;48747;50.250;18.848;2023-06-10T00:51:29;15.80;99.90
37356;DHT22;48747;50.250;18.848;2023-06-10T00:53:33;15.80;99.90
37356;DHT22;48747;50.250;18.848;2023-06-10T00:55:37;15.80;99.90
37356;DHT22;48747;50.250;18.848;2023-06-10T00:57:40;15.80;99.90
37356;DHT22;48747;50.250;18.848;2023-06-10T00:59:47;15.80;99.90
37356;DHT22;48747;50.250;18.848;2023-06-10T01:01:51;15.80;99.90
37356;DHT22;48747;50.250;18.848;2023-06-10T01:03:54;15.80;99.90
37356;DHT22;48747;50.250;18.848;2023-06-10T01:06:08;15.90;99.90
37356;DHT22;48747;50.250;18.848;2023-06-10T01:10:25;15.90;99.90
37356;DHT22;48747;50.250;18.848;2023-06-10T01:14:44;15.90;99.90
37356;DHT22;48747;50.250;18.848;2023-06-10T01:16:47;16.00;99.90
37356;DHT22;48747;50.250;18.848;2023-06-10T01:18:51;15.90;99.90
37356;DHT22;48747;50.250;18.848;2023-06-10T01:20:56;15.90;99.90
37356;DHT22;48747;50.250;18.848;2023-06-10T01:23:00;15.90;99.90
37356;DHT22;48747;50.250;18.848;2023-06-10T01:25:05;15.90;99.90
37356;DHT22;48747;50.250;18.848;2023-06-10T01:27:12;15.90;99.90
37356;DHT22;48747;50.250;18.848;2023-06-10T01:29:18;15.90;99.90
37356;DHT22;48747;50.250;18.848;2023-06-10T01:31:41;15.90;99.90
37356;DHT22;48747;50.250;18.848;2023-06-10T01:33:46;15.90;99.90
37356;DHT22;48747;50.250;18.848;2023-06-10T01:35:49;16.00;99.90
37356;DHT22;48747;50.250;18.848;2023-06-10T01:37:54;16.00;99.90
37356;DHT22;48747;50.250;18.848;2023-06-10T01:40:01;16.00;99.90
37356;DHT22;48747;50.250;18.848;2023-06-10T01:42:06;16.00;99.90
37356;DHT22;48747;50.250;18.848;2023-06-10T01:44:10;16.00;99.90
37356;DHT22;48747;50.250;18.848;2023-06-10T01:46:14;16.00;99.90
37356;DHT22;48747;50.250;18.848;2023-06-10T01:48:17;16.00;99.90
37356;DHT22;48747;50.250;18.848;2023-06-10T01:50:20;16.00;99.90
37356;DHT22;48747;50.250;18.848;2023-06-10T01:52:23;16.00;99.90
37356;DHT22;48747;50.250;18.848;2023-06-10T01:54:26;16.00;99.90
37356;DHT22;48747;50.250;18.848;2023-06-10T01:56:29;16.00;99.90
37356;DHT22;48747;50.250;18.848;2023-06-10T01:58:33;16.00;99.90
37356;DHT22;48747;50.250;18.848;2023-06-10T02:00:36;15.90;99.90
37356;DHT22;48747;50.250;18.848;2023-06-10T02:02:39;15.90;99.90
37356;DHT22;48747;50.250;18.848;2023-06-10T02:04:42;15.90;99.90
37356;DHT22;48747;50.250;18.848;2023-06-10T02:06:45;15.90;99.90
37356;DHT22;48747;50.250;18.848;2023-06-10T02:08:48;15.90;99.90
37356;DHT22;48747;50.250;18.848;2023-06-10T02:10:51;15.90;99.90
37356;DHT22;48747;50.250;18.848;2023-06-10T02:12:54;15.90;99.90
37356;DHT22;48747;50.250;18.848;2023-06-10T02:14:57;15.90;99.90
37356;DHT22;48747;50.250;18.848;2023-06-10T02:17:00;15.90;99.90
37356;DHT22;48747;50.250;18.848;2023-06-10T02:19:03;15.90;99.90
37356;DHT22;48747;50.250;18.848;2023-06-10T02:21:07;15.90;99.90
37356;DHT22;48747;50.250;18.848;2023-06-10T02:23:10;15.80;99.90
37356;DHT22;48747;50.250;18.848;2023-06-10T02:25:14;15.80;99.90
37356;DHT22;48747;50.250;18.848;2023-06-10T02:27:18;15.80;99.90
37356;DHT22;48747;50.250;18.848;2023-06-10T02:29:22;15.80;99.90
37356;DHT22;48747;50.250;18.848;2023-06-10T02:31:25;15.80;99.90
37356;DHT22;48747;50.250;18.848;2023-06-10T02:33:28;15.80;99.90
37356;DHT22;48747;50.250;18.848;2023-06-10T02:35:31;15.80;99.90
37356;DHT22;48747;50.250;18.848;2023-06-10T02:37:34;15.80;99.90
37356;DHT22;48747;50.250;18.848;2023-06-10T02:39:37;15.80;99.90
37356;DHT22;48747;50.250;18.848;2023-06-10T02:41:40;15.80;99.90
37356;DHT22;48747;50.250;18.848;2023-06-10T02:43:43;15.80;99.90
37356;DHT22;48747;50.250;18.848;2023-06-10T02:45:46;15.80;99.90
37356;DHT22;48747;50.250;18.848;2023-06-10T02:47:49;15.80;99.90
37356;DHT22;48747;50.250;18.848;2023-06-10T02:49:52;15.90;99.90
37356;DHT22;48747;50.250;18.848;2023-06-10T02:51:55;15.90;99.90
37356;DHT22;48747;50.250;18.848;2023-06-10T02:53:59;15.90;99.90
37356;DHT22;48747;50.250;18.848;2023-06-10T02:56:02;16.00;99.90
37356;DHT22;48747;50.250;18.848;2023-06-10T02:58:05;16.00;99.90
37356;DHT22;48747;50.250;18.848;2023-06-10T03:00:09;16.00;99.90
37356;DHT22;48747;50.250;18.848;2023-06-10T03:02:13;15.90;99.90
37356;DHT22;48747;50.250;18.848;2023-06-10T03:04:16;15.90;99.90
37356;DHT22;48747;50.250;18.848;2023-06-10T03:06:20;16.00;99.90
37356;DHT22;48747;50.250;18.848;2023-06-10T03:08:25;16.00;99.90
37356;DHT22;48747;50.250;18.848;2023-06-10T03:10:28;16.00;99.90
37356;DHT22;48747;50.250;18.848;2023-06-10T03:12:31;15.90;99.90
37356;DHT22;48747;50.250;18.848;2023-06-10T03:14:34;16.00;99.90
37356;DHT22;48747;50.250;18.848;2023-06-10T03:16:37;16.00;99.90
37356;DHT22;48747;50.250;18.848;2023-06-10T03:18:42;16.00;99.90
37356;DHT22;48747;50.250;18.848;2023-06-10T03:20:45;16.00;99.90
37356;DHT22;48747;50.250;18.848;2023-06-10T03:22:48;16.00;99.90
37356;DHT22;48747;50.250;18.848;2023-06-10T03:24:51;16.10;99.90
37356;DHT22;48747;50.250;18.848;2023-06-10T03:26:55;16.00;99.90
37356;DHT22;48747;50.250;18.848;2023-06-10T03:28:58;16.10;99.90
37356;DHT22;48747;50.250;18.848;2023-06-10T03:31:01;16.20;99.90
37356;DHT22;48747;50.250;18.848;2023-06-10T03:33:04;16.20;99.90
37356;DHT22;48747;50.250;18.848;2023-06-10T03:35:08;16.30;99.90
37356;DHT22;48747;50.250;18.848;2023-06-10T03:37:11;16.40;99.90
37356;DHT22;48747;50.250;18.848;2023-06-10T03:39:14;16.40;99.90
37356;DHT22;48747;50.250;18.848;2023-06-10T03:41:17;16.50;99.90
37356;DHT22;48747;50.250;18.848;2023-06-10T03:43:20;16.60;99.90
37356;DHT22;48747;50.250;18.848;2023-06-10T03:45:24;16.70;99.90
37356;DHT22;48747;50.250;18.848;2023-06-10T03:47:33;16.70;99.90
37356;DHT22;48747;50.250;18.848;2023-06-10T03:49:34;16.80;99.90
37356;DHT22;48747;50.250;18.848;2023-06-10T03:51:38;16.80;99.90
37356;DHT22;48747;50.250;18.848;2023-06-10T03:53:41;16.80;99.90
37356;DHT22;48747;50.250;18.848;2023-06-10T03:55:44;16.80;99.90
37356;DHT22;48747;50.250;18.848;2023-06-10T03:57:48;16.80;99.90
37356;DHT22;48747;50.250;18.848;2023-06-10T03:59:51;16.80;99.90
37356;DHT22;48747;50.250;18.848;2023-06-10T04:01:55;16.80;99.90
37356;DHT22;48747;50.250;18.848;2023-06-10T04:03:58;16.80;99.90
37356;DHT22;48747;50.250;18.848;2023-06-10T04:06:01;16.90;99.90
37356;DHT22;48747;50.250;18.848;2023-06-10T04:08:04;16.90;99.90
37356;DHT22;48747;50.250;18.848;2023-06-10T04:10:09;17.00;99.90
37356;DHT22;48747;50.250;18.848;2023-06-10T04:12:13;17.10;99.90
37356;DHT22;48747;50.250;18.848;2023-06-10T04:14:16;17.20;99.90
37356;DHT22;48747;50.250;18.848;2023-06-10T04:16:20;17.30;99.90
37356;DHT22;48747;50.250;18.848;2023-06-10T04:18:23;17.40;99.90
37356;DHT22;48747;50.250;18.848;2023-06-10T04:20:27;17.40;99.90
37356;DHT22;48747;50.250;18.848;2023-06-10T04:22:30;17.40;99.90
37356;DHT22;48747;50.250;18.848;2023-06-10T04:24:34;17.40;99.90
37356;DHT22;48747;50.250;18.848;2023-06-10T04:26:37;17.40;99.90
37356;DHT22;48747;50.250;18.848;2023-06-10T04:28:42;17.40;99.90
37356;DHT22;48747;50.250;18.848;2023-06-10T04:30:45;17.40;99.90
37356;DHT22;48747;50.250;18.848;2023-06-10T04:32:48;17.50;99.90
37356;DHT22;48747;50.250;18.848;2023-06-10T04:34:51;17.50;99.90
37356;DHT22;48747;50.250;18.848;2023-06-10T04:36:55;17.60;99.90
37356;DHT22;48747;50.250;18.848;2023-06-10T04:38:58;17.70;99.90
37356;DHT22;48747;50.250;18.848;2023-06-10T04:41:01;17.80;99.90
37356;DHT22;48747;50.250;18.848;2023-06-10T04:43:04;17.90;99.90
37356;DHT22;48747;50.250;18.848;2023-06-10T04:45:08;17.90;99.90
37356;DHT22;48747;50.250;18.848;2023-06-10T04:47:11;17.90;99.90
37356;DHT22;48747;50.250;18.848;2023-06-10T04:49:14;18.00;99.90
37356;DHT22;48747;50.250;18.848;2023-06-10T04:51:17;17.90;99.90
37356;DHT22;48747;50.250;18.848;2023-06-10T04:53:20;17.90;99.90
37356;DHT22;48747;50.250;18.848;2023-06-10T04:55:24;17.90;99.90
37356;DHT22;48747;50.250;18.848;2023-06-10T04:57:27;17.90;99.90
37356;DHT22;48747;50.250;18.848;2023-06-10T04:59:30;17.80;99.90
37356;DHT22;48747;50.250;18.848;2023-06-10T05:01:33;17.80;99.90
37356;DHT22;48747;50.250;18.848;2023-06-10T05:03:36;17.90;99.90
37356;DHT22;48747;50.250;18.848;2023-06-10T05:05:39;17.90;99.90
37356;DHT22;48747;50.250;18.848;2023-06-10T05:07:42;17.80;99.90
37356;DHT22;48747;50.250;18.848;2023-06-10T05:09:45;17.90;99.90
37356;DHT22;48747;50.250;18.848;2023-06-10T05:11:49;17.90;99.90
37356;DHT22;48747;50.250;18.848;2023-06-10T05:13:52;18.00;99.90
37356;DHT22;48747;50.250;18.848;2023-06-10T05:15:55;18.10;99.90
37356;DHT22;48747;50.250;18.848;2023-06-10T05:17:58;18.10;99.90
37356;DHT22;48747;50.250;18.848;2023-06-10T05:20:02;18.20;99.90
37356;DHT22;48747;50.250;18.848;2023-06-10T05:22:05;18.10;99.90
37356;DHT22;48747;50.250;18.848;2023-06-10T05:24:08;18.20;99.90
37356;DHT22;48747;50.250;18.848;2023-06-10T05:26:12;18.20;99.90
37356;DHT22;48747;50.250;18.848;2023-06-10T05:28:15;18.20;99.90
37356;DHT22;48747;50.250;18.848;2023-06-10T05:30:18;18.20;99.90
37356;DHT22;48747;50.250;18.848;2023-06-10T05:32:21;18.30;99.90
37356;DHT22;48747;50.250;18.848;2023-06-10T05:34:24;18.40;99.90
37356;DHT22;48747;50.250;18.848;2023-06-10T05:36:27;18.60;99.90
37356;DHT22;48747;50.250;18.848;2023-06-10T05:38:30;18.60;99.90
37356;DHT22;48747;50.250;18.848;2023-06-10T05:40:33;18.60;99.90
37356;DHT22;48747;50.250;18.848;2023-06-10T05:42:36;18.60;99.90
37356;DHT22;48747;50.250;18.848;2023-06-10T05:44:39;18.50;99.90
37356;DHT22;48747;50.250;18.848;2023-06-10T05:46:42;18.50;99.90
37356;DHT22;48747;50.250;18.848;2023-06-10T05:48:45;18.50;99.90
37356;DHT22;48747;50.250;18.848;2023-06-10T05:50:48;18.60;99.90
37356;DHT22;48747;50.250;18.848;2023-06-10T05:52:51;18.60;99.90
37356;DHT22;48747;50.250;18.848;2023-06-10T05:54:55;18.60;99.90
37356;DHT22;48747;50.250;18.848;2023-06-10T05:56:58;18.50;99.90
37356;DHT22;48747;50.250;18.848;2023-06-10T05:59:02;18.50;99.90
37356;DHT22;48747;50.250;18.848;2023-06-10T06:01:05;18.50;99.90
37356;DHT22;48747;50.250;18.848;2023-06-10T06:03:08;18.50;99.90
37356;DHT22;48747;50.250;18.848;2023-06-10T06:05:11;18.50;99.90
37356;DHT22;48747;50.250;18.848;2023-06-10T06:07:14;18.40;99.90
37356;DHT22;48747;50.250;18.848;2023-06-10T06:09:18;18.40;99.90
37356;DHT22;48747;50.250;18.848;2023-06-10T06:11:21;18.40;99.90
37356;DHT22;48747;50.250;18.848;2023-06-10T06:13:24;18.50;99.90
37356;DHT22;48747;50.250;18.848;2023-06-10T06:15:27;18.60;99.90
37356;DHT22;48747;50.250;18.848;2023-06-10T06:17:30;18.60;99.90
37356;DHT22;48747;50.250;18.848;2023-06-10T06:19:33;18.70;99.90
37356;DHT22;48747;50.250;18.848;2023-06-10T06:21:36;18.90;99.90
37356;DHT22;48747;50.250;18.848;2023-06-10T06:23:39;19.00;99.90
37356;DHT22;48747;50.250;18.848;2023-06-10T06:25:42;19.10;99.90
37356;DHT22;48747;50.250;18.848;2023-06-10T06:27:46;19.10;99.90
37356;DHT22;48747;50.250;18.848;2023-06-10T06:29:49;19.10;99.90
37356;DHT22;48747;50.250;18.848;2023-06-10T06:31:52;19.10;99.90
37356;DHT22;48747;50.250;18.848;2023-06-10T06:33:55;19.10;99.90
37356;DHT22;48747;50.250;18.848;2023-06-10T06:35:58;19.00;99.90
37356;DHT22;48747;50.250;18.848;2023-06-10T06:38:02;19.00;99.90
37356;DHT22;48747;50.250;18.848;2023-06-10T06:40:06;18.90;99.90
37356;DHT22;48747;50.250;18.848;2023-06-10T06:42:09;18.80;99.90
37356;DHT22;48747;50.250;18.848;2023-06-10T06:44:13;18.80;99.90
37356;DHT22;48747;50.250;18.848;2023-06-10T06:46:16;18.70;99.90
37356;DHT22;48747;50.250;18.848;2023-06-10T06:48:19;18.70;99.90
37356;DHT22;48747;50.250;18.848;2023-06-10T06:50:22;18.70;99.90
37356;DHT22;48747;50.250;18.848;2023-06-10T06:52:25;18.70;99.90
37356;DHT22;48747;50.250;18.848;2023-06-10T06:54:28;18.70;99.90
37356;DHT22;48747;50.250;18.848;2023-06-10T06:56:32;18.70;99.90
37356;DHT22;48747;50.250;18.848;2023-06-10T06:58:35;18.70;99.90
37356;DHT22;48747;50.250;18.848;2023-06-10T07:00:38;18.80;99.90
37356;DHT22;48747;50.250;18.848;2023-06-10T07:02:41;18.90;99.90
37356;DHT22;48747;50.250;18.848;2023-06-10T07:04:44;18.90;99.90
37356;DHT22;48747;50.250;18.848;2023-06-10T07:06:49;18.90;99.90
37356;DHT22;48747;50.250;18.848;2023-06-10T07:08:52;18.90;99.90
37356;DHT22;48747;50.250;18.848;2023-06-10T07:10:55;19.00;99.90
37356;DHT22;48747;50.250;18.848;2023-06-10T07:12:58;19.00;99.90
37356;DHT22;48747;50.250;18.848;2023-06-10T07:15:01;19.10;99.90
37356;DHT22;48747;50.250;18.848;2023-06-10T07:17:04;19.10;99.90
37356;DHT22;48747;50.250;18.848;2023-06-10T07:19:07;19.00;99.90
37356;DHT22;48747;50.250;18.848;2023-06-10T07:21:11;19.00;99.90
37356;DHT22;48747;50.250;18.848;2023-06-10T07:23:14;19.00;99.90
37356;DHT22;48747;50.250;18.848;2023-06-10T07:25:17;18.90;99.90
37356;DHT22;48747;50.250;18.848;2023-06-10T07:27:20;18.90;99.90
37356;DHT22;48747;50.250;18.848;2023-06-10T07:29:23;19.00;99.90
37356;DHT22;48747;50.250;18.848;2023-06-10T07:31:29;19.10;99.90
37356;DHT22;48747;50.250;18.848;2023-06-10T07:33:32;19.10;99.90
37356;DHT22;48747;50.250;18.848;2023-06-10T07:35:35;19.10;99.90
37356;DHT22;48747;50.250;18.848;2023-06-10T07:37:43;19.00;99.90
37356;DHT22;48747;50.250;18.848;2023-06-10T07:39:43;19.00;99.90
37356;DHT22;48747;50.250;18.848;2023-06-10T07:41:46;19.10;99.90
37356;DHT22;48747;50.250;18.848;2023-06-10T07:43:53;19.10;99.90
37356;DHT22;48747;50.250;18.848;2023-06-10T07:45:59;19.10;99.90
37356;DHT22;48747;50.250;18.848;2023-06-10T07:48:02;19.30;99.90
37356;DHT22;48747;50.250;18.848;2023-06-10T07:50:05;19.40;99.90
37356;DHT22;48747;50.250;18.848;2023-06-10T07:52:08;19.40;99.90
37356;DHT22;48747;50.250;18.848;2023-06-10T07:54:11;19.50;99.90
37356;DHT22;48747;50.250;18.848;2023-06-10T07:56:15;19.50;99.90
37356;DHT22;48747;50.250;18.848;2023-06-10T07:58:18;19.40;99.90
37356;DHT22;48747;50.250;18.848;2023-06-10T08:00:21;19.40;99.90
37356;DHT22;48747;50.250;18.848;2023-06-10T08:02:24;19.50;99.90
37356;DHT22;48747;50.250;18.848;2023-06-10T08:04:27;19.40;99.90
37356;DHT22;48747;50.250;18.848;2023-06-10T08:06:32;19.40;99.90
37356;DHT22;48747;50.250;18.848;2023-06-10T08:08:35;19.50;99.90
37356;DHT22;48747;50.250;18.848;2023-06-10T08:10:40;19.50;99.90
37356;DHT22;48747;50.250;18.848;2023-06-10T08:12:43;19.60;99.90
37356;DHT22;48747;50.250;18.848;2023-06-10T08:14:46;19.70;99.90
37356;DHT22;48747;50.250;18.848;2023-06-10T08:16:49;19.80;99.90
37356;DHT22;48747;50.250;18.848;2023-06-10T08:18:52;19.80;99.90
37356;DHT22;48747;50.250;18.848;2023-06-10T08:20:55;19.70;99.90
37356;DHT22;48747;50.250;18.848;2023-06-10T08:22:58;19.70;99.90
37356;DHT22;48747;50.250;18.848;2023-06-10T08:25:01;19.80;99.90
37356;DHT22;48747;50.250;18.848;2023-06-10T08:27:04;19.80;99.90
37356;DHT22;48747;50.250;18.848;2023-06-10T08:29:08;20.00;99.90
37356;DHT22;48747;50.250;18.848;2023-06-10T08:31:11;20.20;99.90
37356;DHT22;48747;50.250;18.848;2023-06-10T08:33:14;20.40;99.90
37356;DHT22;48747;50.250;18.848;2023-06-10T08:35:17;20.50;99.90
37356;DHT22;48747;50.250;18.848;2023-06-10T08:37:20;20.60;99.90
37356;DHT22;48747;50.250;18.848;2023-06-10T08:39:24;20.50;99.90
37356;DHT22;48747;50.250;18.848;2023-06-10T08:41:28;20.40;99.90
37356;DHT22;48747;50.250;18.848;2023-06-10T08:43:39;20.30;99.90
37356;DHT22;48747;50.250;18.848;2023-06-10T08:45:43;20.30;99.90
37356;DHT22;48747;50.250;18.848;2023-06-10T08:47:49;20.40;99.90
37356;DHT22;48747;50.250;18.848;2023-06-10T08:49:56;20.50;99.90
37356;DHT22;48747;50.250;18.848;2023-06-10T08:52:02;20.70;99.90
37356;DHT22;48747;50.250;18.848;2023-06-10T08:54:17;20.80;99.90
37356;DHT22;48747;50.250;18.848;2023-06-10T08:56:12;21.00;99.90
37356;DHT22;48747;50.250;18.848;2023-06-10T08:58:16;21.10;99.90
37356;DHT22;48747;50.250;18.848;2023-06-10T09:00:46;21.20;99.90
37356;DHT22;48747;50.250;18.848;2023-06-10T09:02:50;21.30;99.90
37356;DHT22;48747;50.250;18.848;2023-06-10T09:05:00;21.60;99.90
37356;DHT22;48747;50.250;18.848;2023-06-10T09:07:19;21.70;99.90
37356;DHT22;48747;50.250;18.848;2023-06-10T09:09:20;21.80;99.90
37356;DHT22;48747;50.250;18.848;2023-06-10T09:11:24;21.80;99.90
37356;DHT22;48747;50.250;18.848;2023-06-10T09:13:27;21.90;99.90
37356;DHT22;48747;50.250;18.848;2023-06-10T09:15:32;22.00;99.90
37356;DHT22;48747;50.250;18.848;2023-06-10T09:17:37;22.00;99.90
37356;DHT22;48747;50.250;18.848;2023-06-10T09:19:43;21.90;99.90
37356;DHT22;48747;50.250;18.848;2023-06-10T09:21:47;21.80;99.90
37356;DHT22;48747;50.250;18.848;2023-06-10T09:23:52;21.90;99.90
37356;DHT22;48747;50.250;18.848;2023-06-10T09:25:57;22.00;99.90
37356;DHT22;48747;50.250;18.848;2023-06-10T09:28:01;22.20;99.90
37356;DHT22;48747;50.250;18.848;2023-06-10T09:30:05;22.20;99.90
37356;DHT22;48747;50.250;18.848;2023-06-10T09:32:09;22.10;99.90
37356;DHT22;48747;50.250;18.848;2023-06-10T09:34:14;22.10;99.90
37356;DHT22;48747;50.250;18.848;2023-06-10T09:36:24;22.30;99.90
37356;DHT22;48747;50.250;18.848;2023-06-10T09:38:33;22.40;99.90
37356;DHT22;48747;50.250;18.848;2023-06-10T09:40:56;22.70;99.90
37356;DHT22;48747;50.250;18.848;2023-06-10T09:42:45;23.00;99.90
37356;DHT22;48747;50.250;18.848;2023-06-10T09:44:51;23.30;99.90
37356;DHT22;48747;50.250;18.848;2023-06-10T09:46:56;23.60;99.90
37356;DHT22;48747;50.250;18.848;2023-06-10T09:49:06;23.70;99.90
37356;DHT22;48747;50.250;18.848;2023-06-10T09:51:09;23.90;99.90
37356;DHT22;48747;50.250;18.848;2023-06-10T09:53:12;23.80;99.90
37356;DHT22;48747;50.250;18.848;2023-06-10T09:55:17;23.40;99.90
37356;DHT22;48747;50.250;18.848;2023-06-10T09:57:21;23.30;99.90
37356;DHT22;48747;50.250;18.848;2023-06-10T09:59:30;23.10;99.90
37356;DHT22;48747;50.250;18.848;2023-06-10T10:01:34;22.90;99.90
37356;DHT22;48747;50.250;18.848;2023-06-10T10:03:51;23.00;99.90
37356;DHT22;48747;50.250;18.848;2023-06-10T10:05:59;23.00;99.90
37356;DHT22;48747;50.250;18.848;2023-06-10T10:08:02;23.20;99.90
37356;DHT22;48747;50.250;18.848;2023-06-10T10:10:06;23.30;99.90
37356;DHT22;48747;50.250;18.848;2023-06-10T10:12:13;23.40;99.90
37356;DHT22;48747;50.250;18.848;2023-06-10T10:14:17;23.50;99.90
37356;DHT22;48747;50.250;18.848;2023-06-10T10:16:27;23.50;99.90
37356;DHT22;48747;50.250;18.848;2023-06-10T10:18:29;23.80;99.90
37356;DHT22;48747;50.250;18.848;2023-06-10T10:20:33;23.70;99.90
37356;DHT22;48747;50.250;18.848;2023-06-10T10:22:39;23.70;99.90
37356;DHT22;48747;50.250;18.848;2023-06-10T10:24:51;23.70;99.90
37356;DHT22;48747;50.250;18.848;2023-06-10T10:26:55;23.80;99.90
37356;DHT22;48747;50.250;18.848;2023-06-10T10:31:26;24.00;99.90
37356;DHT22;48747;50.250;18.848;2023-06-10T10:33:45;24.20;99.90
37356;DHT22;48747;50.250;18.848;2023-06-10T10:35:43;24.20;99.90
37356;DHT22;48747;50.250;18.848;2023-06-10T10:37:48;24.20;99.90
37356;DHT22;48747;50.250;18.848;2023-06-10T10:39:51;24.30;98.60
37356;DHT22;48747;50.250;18.848;2023-06-10T10:41:55;24.00;97.60
37356;DHT22;48747;50.250;18.848;2023-06-10T10:43:59;24.20;98.90
37356;DHT22;48747;50.250;18.848;2023-06-10T10:46:08;24.10;96.50
37356;DHT22;48747;50.250;18.848;2023-06-10T10:48:09;23.90;96.80
37356;DHT22;48747;50.250;18.848;2023-06-10T10:50:15;23.90;99.10
37356;DHT22;48747;50.250;18.848;2023-06-10T10:52:19;23.80;98.50
37356;DHT22;48747;50.250;18.848;2023-06-10T10:54:30;23.70;99.90
37356;DHT22;48747;50.250;18.848;2023-06-10T10:56:33;23.80;99.90
37356;DHT22;48747;50.250;18.848;2023-06-10T10:58:36;24.20;99.90
37356;DHT22;48747;50.250;18.848;2023-06-10T11:00:44;24.20;99.90
37356;DHT22;48747;50.250;18.848;2023-06-10T11:02:48;24.20;99.30
37356;DHT22;48747;50.250;18.848;2023-06-10T11:04:54;23.90;99.90
37356;DHT22;48747;50.250;18.848;2023-06-10T11:07:06;23.80;99.90
37356;DHT22;48747;50.250;18.848;2023-06-10T11:09:28;23.90;99.90
37356;DHT22;48747;50.250;18.848;2023-06-10T11:11:31;23.90;99.90
37356;DHT22;48747;50.250;18.848;2023-06-10T11:13:34;23.90;99.60
37356;DHT22;48747;50.250;18.848;2023-06-10T11:15:44;23.60;98.30
37356;DHT22;48747;50.250;18.848;2023-06-10T11:23:02;23.30;99.90
37356;DHT22;48747;50.250;18.848;2023-06-10T11:25:13;23.60;99.90
37356;DHT22;48747;50.250;18.848;2023-06-10T11:27:19;24.00;99.90
37356;DHT22;48747;50.250;18.848;2023-06-10T11:29:22;24.20;98.50
37356;DHT22;48747;50.250;18.848;2023-06-10T11:31:32;24.40;98.80
37356;DHT22;48747;50.250;18.848;2023-06-10T11:33:38;24.40;98.80
37356;DHT22;48747;50.250;18.848;2023-06-10T11:35:42;24.40;94.60
37356;DHT22;48747;50.250;18.848;2023-06-10T11:37:45;24.40;97.70
37356;DHT22;48747;50.250;18.848;2023-06-10T11:39:54;24.50;94.50
37356;DHT22;48747;50.250;18.848;2023-06-10T11:41:58;24.50;95.70
37356;DHT22;48747;50.250;18.848;2023-06-10T11:44:12;24.40;93.50
37356;DHT22;48747;50.250;18.848;2023-06-10T11:46:44;24.10;95.50
37356;DHT22;48747;50.250;18.848;2023-06-10T11:48:52;24.10;98.20
37356;DHT22;48747;50.250;18.848;2023-06-10T11:50:55;24.40;95.60
37356;DHT22;48747;50.250;18.848;2023-06-10T11:52:58;24.30;95.20
37356;DHT22;48747;50.250;18.848;2023-06-10T11:55:02;24.10;96.30
37356;DHT22;48747;50.250;18.848;2023-06-10T11:57:06;24.10;95.40
37356;DHT22;48747;50.250;18.848;2023-06-10T11:59:10;24.30;96.30
37356;DHT22;48747;50.250;18.848;2023-06-10T12:01:19;24.40;94.40
37356;DHT22;48747;50.250;18.848;2023-06-10T12:03:21;24.30;92.50
37356;DHT22;48747;50.250;18.848;2023-06-10T12:05:24;24.40;93.10
37356;DHT22;48747;50.250;18.848;2023-06-10T12:07:27;24.40;93.70
37356;DHT22;48747;50.250;18.848;2023-06-10T12:09:30;24.10;92.40
37356;DHT22;48747;50.250;18.848;2023-06-10T12:11:35;24.10;93.60
37356;DHT22;48747;50.250;18.848;2023-06-10T12:13:45;24.20;94.70
37356;DHT22;48747;50.250;18.848;2023-06-10T12:15:46;24.40;92.90
37356;DHT22;48747;50.250;18.848;2023-06-10T12:17:50;24.40;93.50
37356;DHT22;48747;50.250;18.848;2023-06-10T12:19:54;24.10;93.50
37356;DHT22;48747;50.250;18.848;2023-06-10T12:22:00;24.10;95.30
37356;DHT22;48747;50.250;18.848;2023-06-10T12:24:09;24.30;95.50
37356;DHT22;48747;50.250;18.848;2023-06-10T12:26:14;24.60;94.00
37356;DHT22;48747;50.250;18.848;2023-06-10T12:28:23;25.00;93.40
37356;DHT22;48747;50.250;18.848;2023-06-10T12:30:27;25.20;91.40
37356;DHT22;48747;50.250;18.848;2023-06-10T12:32:46;24.90;91.30
37356;DHT22;48747;50.250;18.848;2023-06-10T12:34:45;24.90;92.00
37356;DHT22;48747;50.250;18.848;2023-06-10T12:36:49;24.50;91.10
37356;DHT22;48747;50.250;18.848;2023-06-10T12:38:52;24.60;91.60
37356;DHT22;48747;50.250;18.848;2023-06-10T12:41:03;24.90;92.50
37356;DHT22;48747;50.250;18.848;2023-06-10T12:43:06;24.90;86.80
37356;DHT22;48747;50.250;18.848;2023-06-10T12:45:09;24.90;85.20
37356;DHT22;48747;50.250;18.848;2023-06-10T12:47:13;25.00;84.00
37356;DHT22;48747;50.250;18.848;2023-06-10T12:49:20;25.00;84.10
37356;DHT22;48747;50.250;18.848;2023-06-10T12:51:23;24.90;83.30
37356;DHT22;48747;50.250;18.848;2023-06-10T12:53:27;24.80;84.70
37356;DHT22;48747;50.250;18.848;2023-06-10T12:55:30;24.40;83.90
37356;DHT22;48747;50.250;18.848;2023-06-10T12:57:34;24.30;84.10
37356;DHT22;48747;50.250;18.848;2023-06-10T12:59:37;24.10;84.80
37356;DHT22;48747;50.250;18.848;2023-06-10T13:01:40;24.20;85.50
37356;DHT22;48747;50.250;18.848;2023-06-10T13:03:43;24.50;85.50